createdAt,value
2023-03-29T00:02:30.815Z,5.50
2023-03-29T00:06:19.872Z,6.20
2023-03-29T00:21:36.777Z,6.30
2023-03-29T00:47:28.282Z,5.20
2023-03-29T00:50:48.640Z,5.70
2023-03-29T00:54:38.600Z,5.10
2023-03-29T01:39:03.208Z,6.20
2023-03-29T01:43:10.195Z,5.10
2023-03-29T01:46:40.010Z,6.00
2023-03-29T01:50:58.787Z,5.90
2023-03-29T01:54:50.500Z,5.20
2023-03-29T01:58:22.684Z,5.70
2023-03-29T02:05:37.071Z,5.50
2023-03-29T02:16:30.688Z,5.70
2023-03-29T02:20:43.703Z,5.90
2023-03-29T02:45:39.304Z,5.30
2023-03-29T02:53:21.825Z,5.70
2023-03-29T02:57:11.925Z,6.60
2023-03-29T03:00:41.066Z,5.60
2023-03-29T03:08:32.015Z,5.60
2023-03-29T03:12:14.426Z,5.20
2023-03-29T03:31:03.153Z,5.60
2023-03-29T03:34:52.287Z,7.00
2023-03-29T03:53:36.152Z,5.20
2023-03-29T03:57:25.306Z,6.10
2023-03-29T04:01:14.601Z,6.70
2023-03-29T04:05:04.564Z,5.20
2023-03-29T04:27:25.736Z,6.20
2023-03-29T04:30:49.236Z,6.40
2023-03-29T04:34:39.804Z,5.20
2023-03-29T05:00:58.231Z,6.50
2023-03-29T05:04:36.466Z,7.00
2023-03-29T05:08:25.697Z,5.90
2023-03-29T05:12:15.554Z,5.60
2023-03-29T05:15:29.020Z,6.60
2023-03-29T05:30:31.375Z,8.10
2023-03-29T05:34:20.338Z,7.40
2023-03-29T05:38:09.508Z,6.80
2023-03-29T05:53:43.857Z,7.80
2023-03-29T05:57:32.947Z,8.90
2023-03-29T06:01:12.250Z,7.30
2023-03-29T06:04:39.473Z,8.00
2023-03-29T06:08:07.972Z,6.60
2023-03-29T06:11:35.126Z,7.10
2023-03-29T06:18:49.621Z,8.50
2023-03-29T06:22:15.343Z,7.90
2023-03-29T06:25:24.367Z,7.60
2023-03-29T06:28:35.856Z,8.30
2023-03-29T06:31:46.378Z,9.00
2023-03-29T06:35:06.107Z,8.40
2023-03-29T06:38:28.463Z,8.30
2023-03-29T06:41:24.581Z,7.50
2023-03-29T06:44:24.187Z,9.70
2023-03-29T06:47:12.229Z,8.30
2023-03-29T06:50:15.657Z,7.10
2023-03-29T06:53:11.770Z,10.10
2023-03-29T06:56:09.936Z,8.40
2023-03-29T06:59:13.744Z,8.40
2023-03-29T07:02:05.733Z,7.40
2023-03-29T07:05:16.264Z,7.70
2023-03-29T07:08:33.972Z,7.70
2023-03-29T07:12:22.838Z,8.20
2023-03-29T07:15:54.317Z,8.70
2023-03-29T07:19:43.474Z,10.70
2023-03-29T07:23:12.059Z,11.00
2023-03-29T07:27:04.588Z,10.90
2023-03-29T07:34:49.100Z,11.60
2023-03-29T07:38:38.296Z,10.60
2023-03-29T07:42:27.746Z,10.70
2023-03-29T07:46:01.919Z,11.90
2023-03-29T07:49:30.663Z,11.60
2023-03-29T08:11:58.062Z,9.00
2023-03-29T08:15:30.121Z,10.30
2023-03-29T08:19:19.404Z,11.80
2023-03-29T08:23:09.488Z,11.20
2023-03-29T08:38:19.520Z,9.60
2023-03-29T08:42:06.669Z,9.20
2023-03-29T08:46:10.388Z,10.20
2023-03-29T08:50:02.441Z,8.60
2023-03-29T08:58:12.076Z,10.70
2023-03-29T09:02:00.956Z,9.50
2023-03-29T09:05:47.042Z,10.90
2023-03-29T09:09:44.831Z,8.10
2023-03-29T09:13:21.965Z,8.70
2023-03-29T09:17:05.240Z,8.70
2023-03-29T09:20:37.429Z,8.10
2023-03-29T09:24:29.214Z,8.50
2023-03-29T09:28:20.875Z,8.90
2023-03-29T09:32:34.071Z,9.60
2023-03-29T09:36:29.036Z,8.40
2023-03-29T09:40:18.133Z,7.70
2023-03-29T09:44:14.999Z,7.30
2023-03-29T09:47:42.210Z,6.40
2023-03-29T09:50:39.659Z,7.70
2023-03-29T09:54:23.479Z,6.80
2023-03-29T10:42:10.633Z,6.40
2023-03-29T10:45:41.372Z,5.40
2023-03-29T10:49:11.051Z,6.20
2023-03-29T10:52:22.072Z,7.00
2023-03-29T10:55:55.673Z,6.70
2023-03-29T11:00:11.253Z,6.50
2023-03-29T11:04:12.223Z,5.90
2023-03-29T11:07:56.057Z,5.80
2023-03-29T11:11:48.459Z,5.70
2023-03-29T11:15:36.239Z,7.60
2023-03-29T11:19:31.768Z,6.00
2023-03-29T11:23:35.603Z,6.50
2023-03-29T11:27:24.759Z,6.30
2023-03-29T11:31:38.387Z,5.70
2023-03-29T11:35:54.957Z,5.70
2023-03-29T11:39:52.778Z,5.00
2023-03-29T11:43:21.487Z,6.00
2023-03-29T11:47:19.633Z,5.90
2023-03-29T11:51:07.096Z,5.40
2023-03-29T11:54:48.284Z,5.70
2023-03-29T11:57:42.772Z,5.20
2023-03-29T12:01:01.624Z,6.20
2023-03-29T12:04:52.355Z,5.30
2023-03-29T12:08:11.002Z,5.80
2023-03-29T12:11:46.449Z,5.60
2023-03-29T12:15:28.356Z,6.30
2023-03-29T12:18:49.164Z,5.40
2023-03-29T12:21:37.972Z,6.50
2023-03-29T12:25:14.693Z,4.30
2023-03-29T12:29:11.970Z,5.70
2023-03-29T12:33:14.328Z,5.20
2023-03-29T12:37:00.647Z,5.60
2023-03-29T12:40:47.672Z,5.20
2023-03-29T12:44:24.763Z,6.30
2023-03-29T13:53:12.521Z,3.70
2023-03-29T14:00:51.395Z,4.50
2023-03-29T14:30:36.115Z,3.90
2023-03-29T14:34:08.084Z,4.10
2023-03-29T14:37:46.331Z,4.20
2023-03-29T14:41:35.266Z,5.40
2023-03-29T14:45:00.169Z,3.80
2023-03-29T14:48:23.842Z,3.70
2023-03-29T14:51:53.653Z,4.40
2023-03-29T15:18:26.421Z,3.30
2023-03-29T15:22:15.473Z,4.70
2023-03-29T15:25:25.734Z,3.70
2023-03-29T15:29:08.175Z,4.20
2023-03-29T15:32:55.086Z,4.70
2023-03-29T16:01:35.806Z,3.60
2023-03-29T16:05:17.899Z,3.20
2023-03-29T16:27:21.645Z,4.10
2023-03-29T16:30:53.721Z,3.00
2023-03-29T16:34:25.601Z,3.30
2023-03-29T16:38:07.742Z,4.10
2023-03-29T16:41:56.725Z,2.90
2023-03-29T17:09:36.495Z,7.30
2023-03-29T17:13:18.156Z,6.10
2023-03-29T17:16:55.450Z,8.80
2023-03-29T17:20:17.487Z,7.40
2023-03-29T17:24:02.896Z,7.70
2023-03-29T17:27:11.708Z,7.30
2023-03-29T17:30:10.095Z,8.70
2023-03-29T17:33:41.805Z,7.70
2023-03-29T17:41:30.813Z,8.60
2023-03-29T17:44:59.350Z,18.80
2023-03-29T17:48:11.229Z,14.20
2023-03-29T17:51:11.359Z,11.20
2023-03-29T17:54:33.056Z,12.70
2023-03-29T17:57:37.922Z,14.40
2023-03-29T18:00:45.136Z,12.00
2023-03-29T18:03:52.765Z,11.80
2023-03-29T18:06:41.671Z,13.30
2023-03-29T18:09:23.577Z,10.90
2023-03-29T18:12:13.446Z,12.10
2023-03-29T18:15:32.240Z,10.90
2023-03-29T18:18:47.711Z,11.90
2023-03-29T18:22:12.387Z,10.50
2023-03-29T18:25:28.987Z,9.60
2023-03-29T18:28:47.449Z,11.50
2023-03-29T18:32:07.892Z,11.10
2023-03-29T18:35:10.028Z,9.80
2023-03-29T18:38:58.966Z,10.20
2023-03-29T18:42:33.517Z,13.70
2023-03-29T19:01:03.837Z,15.10
2023-03-29T19:04:32.832Z,16.60
2023-03-29T19:07:45.052Z,16.80
2023-03-29T19:11:36.580Z,15.30
2023-03-29T19:33:48.065Z,16.80
2023-03-29T19:37:03.031Z,16.80
2023-03-29T19:40:53.294Z,14.70
2023-03-29T20:03:24.526Z,14.00
2023-03-29T20:07:03.041Z,13.90
2023-03-29T20:10:51.262Z,14.50
2023-03-29T20:14:40.348Z,14.80
2023-03-29T20:40:34.630Z,14.20
2023-03-29T20:44:23.892Z,14.90
2023-03-29T20:47:59.493Z,14.20
2023-03-29T20:51:36.294Z,12.10
2023-03-29T21:10:31.550Z,14.80
2023-03-29T21:14:20.416Z,12.90
2023-03-29T21:18:12.866Z,10.60
2023-03-29T21:47:59.746Z,12.30
2023-03-29T21:51:51.370Z,12.40
2023-03-29T21:55:40.440Z,12.80
2023-03-29T21:59:08.545Z,12.80
2023-03-29T22:02:57.576Z,13.80
2023-03-29T22:06:46.968Z,11.70
2023-03-29T22:32:25.774Z,11.90
2023-03-29T22:36:15.244Z,11.20
2023-03-29T22:55:26.469Z,12.30
2023-03-29T22:59:08.178Z,12.70
2023-03-29T23:02:57.654Z,11.30
2023-03-29T23:06:37.441Z,12.40
2023-03-29T23:10:13.497Z,9.60
2023-03-29T23:40:23.014Z,11.60
2023-03-29T23:44:12.283Z,9.90
